sensor_id;sensor_type;location;lat;lon;timestamp;temperature;humidity
52859;DHT22;38721;53.098;6.596;2024-03-02T00:02:19;7.10;99.90
52859;DHT22;38721;53.098;6.596;2024-03-02T00:04:45;7.10;99.90
52859;DHT22;38721;53.098;6.596;2024-03-02T00:07:13;7.10;99.90
52859;DHT22;38721;53.098;6.596;2024-03-02T00:09:39;7.00;99.90
52859;DHT22;38721;53.098;6.596;2024-03-02T00:12:05;7.10;99.90
52859;DHT22;38721;53.098;6.596;2024-03-02T00:14:31;7.10;99.90
52859;DHT22;38721;53.098;6.596;2024-03-02T00:16:57;7.10;99.90
52859;DHT22;38721;53.098;6.596;2024-03-02T00:19:24;7.10;99.90
52859;DHT22;38721;53.098;6.596;2024-03-02T00:21:50;7.20;99.90
52859;DHT22;38721;53.098;6.596;2024-03-02T00:24:33;7.10;99.90
52859;DHT22;38721;53.098;6.596;2024-03-02T00:26:59;7.10;99.90
52859;DHT22;38721;53.098;6.596;2024-03-02T00:29:25;7.10;99.90
52859;DHT22;38721;53.098;6.596;2024-03-02T00:31:51;7.00;99.90
52859;DHT22;38721;53.098;6.596;2024-03-02T00:34:17;7.10;99.90
52859;DHT22;38721;53.098;6.596;2024-03-02T00:36:43;7.00;99.90
52859;DHT22;38721;53.098;6.596;2024-03-02T00:39:12;7.10;99.90
52859;DHT22;38721;53.098;6.596;2024-03-02T00:41:41;7.10;99.90
52859;DHT22;38721;53.098;6.596;2024-03-02T00:44:12;7.10;99.90
52859;DHT22;38721;53.098;6.596;2024-03-02T00:46:39;7.10;99.90
52859;DHT22;38721;53.098;6.596;2024-03-02T00:49:05;7.10;99.90
52859;DHT22;38721;53.098;6.596;2024-03-02T00:51:37;7.10;99.90
52859;DHT22;38721;53.098;6.596;2024-03-02T00:54:08;7.10;99.90
52859;DHT22;38721;53.098;6.596;2024-03-02T00:56:34;7.20;99.90
52859;DHT22;38721;53.098;6.596;2024-03-02T00:59:03;7.20;99.90
52859;DHT22;38721;53.098;6.596;2024-03-02T01:01:28;7.30;99.90
52859;DHT22;38721;53.098;6.596;2024-03-02T01:03:54;7.20;99.90
52859;DHT22;38721;53.098;6.596;2024-03-02T01:06:20;7.30;99.90
52859;DHT22;38721;53.098;6.596;2024-03-02T01:08:47;7.30;99.90
52859;DHT22;38721;53.098;6.596;2024-03-02T01:11:16;7.30;99.90
52859;DHT22;38721;53.098;6.596;2024-03-02T01:13:43;7.30;99.90
52859;DHT22;38721;53.098;6.596;2024-03-02T01:16:09;7.40;99.90
52859;DHT22;38721;53.098;6.596;2024-03-02T01:18:35;7.30;99.90
52859;DHT22;38721;53.098;6.596;2024-03-02T01:21:00;7.30;99.90
52859;DHT22;38721;53.098;6.596;2024-03-02T01:23:27;7.30;99.90
52859;DHT22;38721;53.098;6.596;2024-03-02T01:25:53;7.30;99.90
52859;DHT22;38721;53.098;6.596;2024-03-02T01:28:19;7.40;99.90
52859;DHT22;38721;53.098;6.596;2024-03-02T01:30:46;7.30;99.90
52859;DHT22;38721;53.098;6.596;2024-03-02T01:33:12;7.30;99.90
52859;DHT22;38721;53.098;6.596;2024-03-02T01:35:38;7.40;99.90
52859;DHT22;38721;53.098;6.596;2024-03-02T01:38:04;7.40;99.90
52859;DHT22;38721;53.098;6.596;2024-03-02T01:40:33;7.40;99.90
52859;DHT22;38721;53.098;6.596;2024-03-02T01:42:59;7.40;99.90
52859;DHT22;38721;53.098;6.596;2024-03-02T01:45:25;7.40;99.90
52859;DHT22;38721;53.098;6.596;2024-03-02T01:47:50;7.40;99.90
52859;DHT22;38721;53.098;6.596;2024-03-02T01:50:28;7.40;99.90
52859;DHT22;38721;53.098;6.596;2024-03-02T01:52:57;7.40;99.90
52859;DHT22;38721;53.098;6.596;2024-03-02T01:55:23;7.40;99.90
52859;DHT22;38721;53.098;6.596;2024-03-02T01:57:50;7.40;99.90
52859;DHT22;38721;53.098;6.596;2024-03-02T02:00:20;7.40;99.90
52859;DHT22;38721;53.098;6.596;2024-03-02T02:02:46;7.50;99.90
52859;DHT22;38721;53.098;6.596;2024-03-02T02:05:13;7.50;99.90
52859;DHT22;38721;53.098;6.596;2024-03-02T02:07:41;7.50;99.90
52859;DHT22;38721;53.098;6.596;2024-03-02T02:10:08;7.60;99.90
52859;DHT22;38721;53.098;6.596;2024-03-02T02:12:33;7.70;99.90
52859;DHT22;38721;53.098;6.596;2024-03-02T02:14:59;7.70;99.90
52859;DHT22;38721;53.098;6.596;2024-03-02T02:17:25;7.70;99.90
52859;DHT22;38721;53.098;6.596;2024-03-02T02:19:51;7.70;99.90
52859;DHT22;38721;53.098;6.596;2024-03-02T02:22:16;7.70;99.90
52859;DHT22;38721;53.098;6.596;2024-03-02T02:24:42;7.70;99.90
52859;DHT22;38721;53.098;6.596;2024-03-02T02:27:09;7.70;99.90
52859;DHT22;38721;53.098;6.596;2024-03-02T02:29:35;7.70;99.90
52859;DHT22;38721;53.098;6.596;2024-03-02T02:32:01;7.70;99.90
52859;DHT22;38721;53.098;6.596;2024-03-02T02:34:27;7.70;99.90
52859;DHT22;38721;53.098;6.596;2024-03-02T02:36:53;7.60;99.90
52859;DHT22;38721;53.098;6.596;2024-03-02T02:39:21;7.70;99.90
52859;DHT22;38721;53.098;6.596;2024-03-02T02:41:46;7.70;99.90
52859;DHT22;38721;53.098;6.596;2024-03-02T02:44:12;7.80;99.90
52859;DHT22;38721;53.098;6.596;2024-03-02T02:46:41;7.80;99.90
52859;DHT22;38721;53.098;6.596;2024-03-02T02:49:07;7.80;99.90
52859;DHT22;38721;53.098;6.596;2024-03-02T02:51:34;7.80;99.90
52859;DHT22;38721;53.098;6.596;2024-03-02T02:54:00;7.80;99.90
52859;DHT22;38721;53.098;6.596;2024-03-02T02:56:26;7.90;99.90
52859;DHT22;38721;53.098;6.596;2024-03-02T02:58:51;7.90;99.90
52859;DHT22;38721;53.098;6.596;2024-03-02T03:01:17;7.80;99.90
52859;DHT22;38721;53.098;6.596;2024-03-02T03:03:44;7.80;99.90
52859;DHT22;38721;53.098;6.596;2024-03-02T03:06:10;7.80;99.90
52859;DHT22;38721;53.098;6.596;2024-03-02T03:08:36;7.80;99.90
52859;DHT22;38721;53.098;6.596;2024-03-02T03:11:01;7.80;99.90
52859;DHT22;38721;53.098;6.596;2024-03-02T03:13:27;7.80;99.90
52859;DHT22;38721;53.098;6.596;2024-03-02T03:15:53;7.90;99.90
52859;DHT22;38721;53.098;6.596;2024-03-02T03:18:19;7.90;99.90
52859;DHT22;38721;53.098;6.596;2024-03-02T03:20:44;7.90;99.90
52859;DHT22;38721;53.098;6.596;2024-03-02T03:23:11;7.90;99.90
52859;DHT22;38721;53.098;6.596;2024-03-02T03:25:41;7.90;99.90
52859;DHT22;38721;53.098;6.596;2024-03-02T03:28:07;7.90;99.90
52859;DHT22;38721;53.098;6.596;2024-03-02T03:30:37;7.90;99.90
52859;DHT22;38721;53.098;6.596;2024-03-02T03:33:03;7.80;99.90
52859;DHT22;38721;53.098;6.596;2024-03-02T03:35:29;7.80;99.90
52859;DHT22;38721;53.098;6.596;2024-03-02T03:37:55;7.90;99.90
52859;DHT22;38721;53.098;6.596;2024-03-02T03:40:21;7.80;99.90
52859;DHT22;38721;53.098;6.596;2024-03-02T03:42:46;7.80;99.90
52859;DHT22;38721;53.098;6.596;2024-03-02T03:45:12;7.80;99.90
52859;DHT22;38721;53.098;6.596;2024-03-02T03:47:38;7.80;99.90
52859;DHT22;38721;53.098;6.596;2024-03-02T03:50:04;7.80;99.90
52859;DHT22;38721;53.098;6.596;2024-03-02T03:52:32;7.80;99.90
52859;DHT22;38721;53.098;6.596;2024-03-02T03:54:59;7.80;99.90
52859;DHT22;38721;53.098;6.596;2024-03-02T03:57:26;7.70;99.90
52859;DHT22;38721;53.098;6.596;2024-03-02T03:59:52;7.70;99.90
52859;DHT22;38721;53.098;6.596;2024-03-02T04:02:18;7.70;99.90
52859;DHT22;38721;53.098;6.596;2024-03-02T04:04:43;7.70;99.90
52859;DHT22;38721;53.098;6.596;2024-03-02T04:07:09;7.70;99.90
52859;DHT22;38721;53.098;6.596;2024-03-02T04:09:35;7.70;99.90
52859;DHT22;38721;53.098;6.596;2024-03-02T04:12:01;7.70;99.90
52859;DHT22;38721;53.098;6.596;2024-03-02T04:14:26;7.60;99.90
52859;DHT22;38721;53.098;6.596;2024-03-02T04:16:52;7.60;99.90
52859;DHT22;38721;53.098;6.596;2024-03-02T04:19:20;7.70;99.90
52859;DHT22;38721;53.098;6.596;2024-03-02T04:21:49;7.60;99.90
52859;DHT22;38721;53.098;6.596;2024-03-02T04:24:15;7.60;99.90
52859;DHT22;38721;53.098;6.596;2024-03-02T04:26:40;7.60;99.90
52859;DHT22;38721;53.098;6.596;2024-03-02T04:29:06;7.60;99.90
52859;DHT22;38721;53.098;6.596;2024-03-02T04:31:31;7.60;99.90
52859;DHT22;38721;53.098;6.596;2024-03-02T04:33:57;7.60;99.90
52859;DHT22;38721;53.098;6.596;2024-03-02T04:36:23;7.60;99.90
52859;DHT22;38721;53.098;6.596;2024-03-02T04:38:49;7.60;99.90
52859;DHT22;38721;53.098;6.596;2024-03-02T04:41:14;7.60;99.90
52859;DHT22;38721;53.098;6.596;2024-03-02T04:43:40;7.60;99.90
52859;DHT22;38721;53.098;6.596;2024-03-02T04:46:07;7.60;99.90
52859;DHT22;38721;53.098;6.596;2024-03-02T04:48:33;7.60;99.90
52859;DHT22;38721;53.098;6.596;2024-03-02T04:50:59;7.50;99.90
52859;DHT22;38721;53.098;6.596;2024-03-02T04:53:25;7.50;99.90
52859;DHT22;38721;53.098;6.596;2024-03-02T04:55:51;7.40;99.90
52859;DHT22;38721;53.098;6.596;2024-03-02T04:58:19;7.30;99.90
52859;DHT22;38721;53.098;6.596;2024-03-02T05:00:45;7.30;99.90
52859;DHT22;38721;53.098;6.596;2024-03-02T05:03:12;7.30;99.90
52859;DHT22;38721;53.098;6.596;2024-03-02T05:05:38;7.30;99.90
52859;DHT22;38721;53.098;6.596;2024-03-02T05:08:04;7.30;99.90
52859;DHT22;38721;53.098;6.596;2024-03-02T05:10:30;7.30;99.90
52859;DHT22;38721;53.098;6.596;2024-03-02T05:12:56;7.40;99.90
52859;DHT22;38721;53.098;6.596;2024-03-02T05:15:25;7.30;99.90
52859;DHT22;38721;53.098;6.596;2024-03-02T05:17:51;7.30;99.90
52859;DHT22;38721;53.098;6.596;2024-03-02T05:20:17;7.30;99.90
52859;DHT22;38721;53.098;6.596;2024-03-02T05:22:42;7.20;99.90
52859;DHT22;38721;53.098;6.596;2024-03-02T05:25:08;7.20;99.90
52859;DHT22;38721;53.098;6.596;2024-03-02T05:27:37;7.20;99.90
52859;DHT22;38721;53.098;6.596;2024-03-02T05:30:03;7.20;99.90
52859;DHT22;38721;53.098;6.596;2024-03-02T05:32:32;7.20;99.90
52859;DHT22;38721;53.098;6.596;2024-03-02T05:34:57;7.20;99.90
52859;DHT22;38721;53.098;6.596;2024-03-02T05:37:23;7.20;99.90
52859;DHT22;38721;53.098;6.596;2024-03-02T05:39:49;7.20;99.90
52859;DHT22;38721;53.098;6.596;2024-03-02T05:42:15;7.30;99.90
52859;DHT22;38721;53.098;6.596;2024-03-02T05:44:42;7.30;99.90
52859;DHT22;38721;53.098;6.596;2024-03-02T05:47:07;7.30;99.90
52859;DHT22;38721;53.098;6.596;2024-03-02T05:49:36;7.30;99.90
52859;DHT22;38721;53.098;6.596;2024-03-02T05:52:02;7.30;99.90
52859;DHT22;38721;53.098;6.596;2024-03-02T05:54:28;7.30;99.90
52859;DHT22;38721;53.098;6.596;2024-03-02T05:56:54;7.30;99.90
52859;DHT22;38721;53.098;6.596;2024-03-02T05:59:19;7.30;99.90
52859;DHT22;38721;53.098;6.596;2024-03-02T06:01:46;7.30;99.90
52859;DHT22;38721;53.098;6.596;2024-03-02T06:04:13;7.30;99.90
52859;DHT22;38721;53.098;6.596;2024-03-02T06:06:39;7.30;99.90
52859;DHT22;38721;53.098;6.596;2024-03-02T06:09:06;7.30;99.90
52859;DHT22;38721;53.098;6.596;2024-03-02T06:11:39;7.30;99.90
52859;DHT22;38721;53.098;6.596;2024-03-02T06:14:06;7.30;99.90
52859;DHT22;38721;53.098;6.596;2024-03-02T06:16:32;7.30;99.90
52859;DHT22;38721;53.098;6.596;2024-03-02T06:18:59;7.30;99.90
52859;DHT22;38721;53.098;6.596;2024-03-02T06:21:25;7.30;99.90
52859;DHT22;38721;53.098;6.596;2024-03-02T06:23:51;7.30;99.90
52859;DHT22;38721;53.098;6.596;2024-03-02T06:26:17;7.30;99.90
52859;DHT22;38721;53.098;6.596;2024-03-02T06:28:43;7.20;99.90
52859;DHT22;38721;53.098;6.596;2024-03-02T06:31:09;7.10;99.90
52859;DHT22;38721;53.098;6.596;2024-03-02T06:33:35;7.10;99.90
52859;DHT22;38721;53.098;6.596;2024-03-02T06:36:01;7.00;99.90
52859;DHT22;38721;53.098;6.596;2024-03-02T06:38:27;7.00;99.90
52859;DHT22;38721;53.098;6.596;2024-03-02T06:40:53;6.90;99.90
52859;DHT22;38721;53.098;6.596;2024-03-02T06:43:19;6.80;99.90
52859;DHT22;38721;53.098;6.596;2024-03-02T06:45:49;6.80;99.90
52859;DHT22;38721;53.098;6.596;2024-03-02T06:48:16;6.80;99.90
52859;DHT22;38721;53.098;6.596;2024-03-02T06:50:46;6.70;99.90
52859;DHT22;38721;53.098;6.596;2024-03-02T06:53:12;6.70;99.90
52859;DHT22;38721;53.098;6.596;2024-03-02T06:55:38;6.60;99.90
52859;DHT22;38721;53.098;6.596;2024-03-02T06:58:03;6.60;99.90
52859;DHT22;38721;53.098;6.596;2024-03-02T07:00:30;6.70;99.90
52859;DHT22;38721;53.098;6.596;2024-03-02T07:02:56;6.60;99.90
52859;DHT22;38721;53.098;6.596;2024-03-02T07:05:21;6.60;99.90
52859;DHT22;38721;53.098;6.596;2024-03-02T07:07:47;6.60;99.90
52859;DHT22;38721;53.098;6.596;2024-03-02T07:10:13;6.60;99.90
52859;DHT22;38721;53.098;6.596;2024-03-02T07:12:38;6.60;99.90
52859;DHT22;38721;53.098;6.596;2024-03-02T07:15:05;6.70;99.90
52859;DHT22;38721;53.098;6.596;2024-03-02T07:17:31;6.80;99.90
52859;DHT22;38721;53.098;6.596;2024-03-02T07:19:57;6.90;99.90
52859;DHT22;38721;53.098;6.596;2024-03-02T07:22:24;7.00;99.90
52859;DHT22;38721;53.098;6.596;2024-03-02T07:24:49;7.00;99.90
52859;DHT22;38721;53.098;6.596;2024-03-02T07:27:16;7.10;99.90
52859;DHT22;38721;53.098;6.596;2024-03-02T07:29:43;7.10;99.90
52859;DHT22;38721;53.098;6.596;2024-03-02T07:32:10;7.10;99.90
52859;DHT22;38721;53.098;6.596;2024-03-02T07:34:36;7.20;99.90
52859;DHT22;38721;53.098;6.596;2024-03-02T07:37:03;7.20;99.90
52859;DHT22;38721;53.098;6.596;2024-03-02T07:39:29;7.10;99.90
52859;DHT22;38721;53.098;6.596;2024-03-02T07:41:55;7.20;99.90
52859;DHT22;38721;53.098;6.596;2024-03-02T07:44:21;7.20;99.90
52859;DHT22;38721;53.098;6.596;2024-03-02T07:46:48;7.20;99.90
52859;DHT22;38721;53.098;6.596;2024-03-02T07:49:17;7.20;99.90
52859;DHT22;38721;53.098;6.596;2024-03-02T07:51:43;7.20;99.90
52859;DHT22;38721;53.098;6.596;2024-03-02T07:54:09;7.20;99.90
52859;DHT22;38721;53.098;6.596;2024-03-02T07:56:35;7.30;99.90
52859;DHT22;38721;53.098;6.596;2024-03-02T07:59:04;7.30;99.90
52859;DHT22;38721;53.098;6.596;2024-03-02T08:01:32;7.40;99.90
52859;DHT22;38721;53.098;6.596;2024-03-02T08:03:59;7.50;99.90
52859;DHT22;38721;53.098;6.596;2024-03-02T08:06:29;7.50;99.90
52859;DHT22;38721;53.098;6.596;2024-03-02T08:08:56;7.60;99.90
52859;DHT22;38721;53.098;6.596;2024-03-02T08:11:21;7.70;99.90
52859;DHT22;38721;53.098;6.596;2024-03-02T08:13:47;7.70;99.90
52859;DHT22;38721;53.098;6.596;2024-03-02T08:16:17;7.80;99.90
52859;DHT22;38721;53.098;6.596;2024-03-02T08:18:47;7.80;99.90
52859;DHT22;38721;53.098;6.596;2024-03-02T08:21:13;7.90;99.90
52859;DHT22;38721;53.098;6.596;2024-03-02T08:23:40;8.00;99.90
52859;DHT22;38721;53.098;6.596;2024-03-02T08:26:08;8.10;99.90
52859;DHT22;38721;53.098;6.596;2024-03-02T08:28:34;8.20;99.90
52859;DHT22;38721;53.098;6.596;2024-03-02T08:31:00;8.30;99.90
52859;DHT22;38721;53.098;6.596;2024-03-02T08:33:26;8.50;99.90
52859;DHT22;38721;53.098;6.596;2024-03-02T08:35:51;8.60;99.90
52859;DHT22;38721;53.098;6.596;2024-03-02T08:38:17;8.70;99.90
52859;DHT22;38721;53.098;6.596;2024-03-02T08:40:44;8.80;99.90
52859;DHT22;38721;53.098;6.596;2024-03-02T08:43:09;9.00;99.90
52859;DHT22;38721;53.098;6.596;2024-03-02T08:45:36;9.10;99.90
52859;DHT22;38721;53.098;6.596;2024-03-02T08:48:01;9.40;99.90
52859;DHT22;38721;53.098;6.596;2024-03-02T08:50:27;9.40;99.90
52859;DHT22;38721;53.098;6.596;2024-03-02T08:52:53;9.60;99.90
52859;DHT22;38721;53.098;6.596;2024-03-02T08:55:18;9.90;99.90
52859;DHT22;38721;53.098;6.596;2024-03-02T08:57:44;9.90;99.90
52859;DHT22;38721;53.098;6.596;2024-03-02T09:00:10;9.90;99.90
52859;DHT22;38721;53.098;6.596;2024-03-02T09:02:36;10.00;99.90
52859;DHT22;38721;53.098;6.596;2024-03-02T09:05:03;10.20;99.90
52859;DHT22;38721;53.098;6.596;2024-03-02T09:07:29;10.30;99.90
52859;DHT22;38721;53.098;6.596;2024-03-02T09:09:55;10.40;99.90
52859;DHT22;38721;53.098;6.596;2024-03-02T09:12:20;10.60;99.90
52859;DHT22;38721;53.098;6.596;2024-03-02T09:14:48;10.60;99.90
52859;DHT22;38721;53.098;6.596;2024-03-02T09:17:13;10.60;99.90
52859;DHT22;38721;53.098;6.596;2024-03-02T09:19:39;10.60;99.90
52859;DHT22;38721;53.098;6.596;2024-03-02T09:22:05;10.70;99.90
52859;DHT22;38721;53.098;6.596;2024-03-02T09:24:32;10.80;99.90
52859;DHT22;38721;53.098;6.596;2024-03-02T09:26:59;10.50;99.90
52859;DHT22;38721;53.098;6.596;2024-03-02T09:29:25;10.40;99.90
52859;DHT22;38721;53.098;6.596;2024-03-02T09:31:50;10.50;99.90
52859;DHT22;38721;53.098;6.596;2024-03-02T09:34:17;10.60;99.90
52859;DHT22;38721;53.098;6.596;2024-03-02T09:36:43;10.90;99.90
52859;DHT22;38721;53.098;6.596;2024-03-02T09:39:09;10.90;99.90
52859;DHT22;38721;53.098;6.596;2024-03-02T09:41:36;11.00;99.90
52859;DHT22;38721;53.098;6.596;2024-03-02T09:44:02;10.90;99.90
52859;DHT22;38721;53.098;6.596;2024-03-02T09:46:28;11.10;99.90
52859;DHT22;38721;53.098;6.596;2024-03-02T09:48:54;10.80;99.90
52859;DHT22;38721;53.098;6.596;2024-03-02T09:51:20;10.50;99.90
52859;DHT22;38721;53.098;6.596;2024-03-02T09:53:47;10.60;99.90
52859;DHT22;38721;53.098;6.596;2024-03-02T09:56:13;10.60;99.90
52859;DHT22;38721;53.098;6.596;2024-03-02T09:58:41;10.60;99.90
52859;DHT22;38721;53.098;6.596;2024-03-02T10:01:07;11.00;99.90
52859;DHT22;38721;53.098;6.596;2024-03-02T10:03:34;11.50;99.90
52859;DHT22;38721;53.098;6.596;2024-03-02T10:06:22;11.40;99.90
52859;DHT22;38721;53.098;6.596;2024-03-02T10:08:48;11.70;99.90
52859;DHT22;38721;53.098;6.596;2024-03-02T10:11:29;11.60;99.90
52859;DHT22;38721;53.098;6.596;2024-03-02T10:16:35;11.60;99.90
52859;DHT22;38721;53.098;6.596;2024-03-02T10:19:18;11.50;99.90
52859;DHT22;38721;53.098;6.596;2024-03-02T10:21:54;11.80;99.90
52859;DHT22;38721;53.098;6.596;2024-03-02T10:24:21;11.90;99.90
52859;DHT22;38721;53.098;6.596;2024-03-02T10:26:48;12.00;99.90
52859;DHT22;38721;53.098;6.596;2024-03-02T10:29:14;11.90;99.90
52859;DHT22;38721;53.098;6.596;2024-03-02T10:31:41;11.80;99.90
52859;DHT22;38721;53.098;6.596;2024-03-02T10:34:08;11.70;99.90
52859;DHT22;38721;53.098;6.596;2024-03-02T10:36:37;12.00;99.90
52859;DHT22;38721;53.098;6.596;2024-03-02T10:39:07;11.60;99.90
52859;DHT22;38721;53.098;6.596;2024-03-02T10:41:36;11.70;99.90
52859;DHT22;38721;53.098;6.596;2024-03-02T10:44:09;12.00;99.90
52859;DHT22;38721;53.098;6.596;2024-03-02T10:46:37;12.10;99.90
52859;DHT22;38721;53.098;6.596;2024-03-02T10:49:04;12.20;99.90
52859;DHT22;38721;53.098;6.596;2024-03-02T10:51:32;12.00;99.90
52859;DHT22;38721;53.098;6.596;2024-03-02T10:53:59;11.80;99.90
52859;DHT22;38721;53.098;6.596;2024-03-02T10:56:44;11.90;99.90
52859;DHT22;38721;53.098;6.596;2024-03-02T10:59:17;12.20;99.90
52859;DHT22;38721;53.098;6.596;2024-03-02T11:01:48;11.90;99.90
52859;DHT22;38721;53.098;6.596;2024-03-02T11:04:16;12.10;99.90
52859;DHT22;38721;53.098;6.596;2024-03-02T11:06:48;12.10;99.90
52859;DHT22;38721;53.098;6.596;2024-03-02T11:09:14;12.20;99.90
52859;DHT22;38721;53.098;6.596;2024-03-02T11:11:43;11.70;99.90
52859;DHT22;38721;53.098;6.596;2024-03-02T11:14:14;12.20;99.90
52859;DHT22;38721;53.098;6.596;2024-03-02T11:16:42;12.60;99.90
52859;DHT22;38721;53.098;6.596;2024-03-02T11:19:11;12.60;99.90
52859;DHT22;38721;53.098;6.596;2024-03-02T11:21:38;12.70;99.90
52859;DHT22;38721;53.098;6.596;2024-03-02T11:26:53;12.80;99.90
52859;DHT22;38721;53.098;6.596;2024-03-02T11:32:05;12.90;99.90
52859;DHT22;38721;53.098;6.596;2024-03-02T11:34:35;12.60;99.90
52859;DHT22;38721;53.098;6.596;2024-03-02T11:37:02;12.60;99.90
52859;DHT22;38721;53.098;6.596;2024-03-02T11:39:29;12.50;99.90
52859;DHT22;38721;53.098;6.596;2024-03-02T11:41:56;12.70;99.90
52859;DHT22;38721;53.098;6.596;2024-03-02T11:44:24;12.50;99.90
52859;DHT22;38721;53.098;6.596;2024-03-02T11:47:11;12.70;99.90
52859;DHT22;38721;53.098;6.596;2024-03-02T11:52:13;12.10;99.90
52859;DHT22;38721;53.098;6.596;2024-03-02T11:54:42;12.50;99.90
52859;DHT22;38721;53.098;6.596;2024-03-02T11:57:21;12.60;99.90
52859;DHT22;38721;53.098;6.596;2024-03-02T11:59:49;12.30;99.90
52859;DHT22;38721;53.098;6.596;2024-03-02T12:02:20;12.60;99.90
52859;DHT22;38721;53.098;6.596;2024-03-02T12:04:47;13.00;99.90
52859;DHT22;38721;53.098;6.596;2024-03-02T12:07:20;12.70;99.90
52859;DHT22;38721;53.098;6.596;2024-03-02T12:09:59;13.10;99.90
52859;DHT22;38721;53.098;6.596;2024-03-02T12:12:25;13.60;99.90
52859;DHT22;38721;53.098;6.596;2024-03-02T12:14:53;13.70;99.90
52859;DHT22;38721;53.098;6.596;2024-03-02T12:17:21;13.50;99.90
52859;DHT22;38721;53.098;6.596;2024-03-02T12:19:47;13.70;99.90
52859;DHT22;38721;53.098;6.596;2024-03-02T12:22:13;13.80;99.90
52859;DHT22;38721;53.098;6.596;2024-03-02T12:24:39;14.10;99.90
52859;DHT22;38721;53.098;6.596;2024-03-02T12:27:06;13.80;99.90
52859;DHT22;38721;53.098;6.596;2024-03-02T12:29:32;14.30;99.90
52859;DHT22;38721;53.098;6.596;2024-03-02T12:31:59;14.40;99.90
52859;DHT22;38721;53.098;6.596;2024-03-02T12:34:27;14.70;99.90
52859;DHT22;38721;53.098;6.596;2024-03-02T12:36:53;14.70;99.90
52859;DHT22;38721;53.098;6.596;2024-03-02T12:39:19;14.90;99.90
52859;DHT22;38721;53.098;6.596;2024-03-02T12:41:46;14.10;99.90
52859;DHT22;38721;53.098;6.596;2024-03-02T12:44:12;13.70;99.90
52859;DHT22;38721;53.098;6.596;2024-03-02T12:46:38;13.10;99.90
52859;DHT22;38721;53.098;6.596;2024-03-02T12:49:09;12.90;99.90
52859;DHT22;38721;53.098;6.596;2024-03-02T12:51:36;12.70;99.90
52859;DHT22;38721;53.098;6.596;2024-03-02T12:54:02;13.40;99.90
52859;DHT22;38721;53.098;6.596;2024-03-02T12:56:29;13.40;99.90
52859;DHT22;38721;53.098;6.596;2024-03-02T12:58:55;14.10;99.90
52859;DHT22;38721;53.098;6.596;2024-03-02T13:01:21;14.60;99.90
52859;DHT22;38721;53.098;6.596;2024-03-02T13:03:52;14.50;99.90
52859;DHT22;38721;53.098;6.596;2024-03-02T13:06:18;14.30;99.90
52859;DHT22;38721;53.098;6.596;2024-03-02T13:08:45;14.70;99.90
52859;DHT22;38721;53.098;6.596;2024-03-02T13:11:12;14.60;99.90
52859;DHT22;38721;53.098;6.596;2024-03-02T13:13:42;14.50;99.90
52859;DHT22;38721;53.098;6.596;2024-03-02T13:16:12;14.40;99.90
52859;DHT22;38721;53.098;6.596;2024-03-02T13:18:39;14.20;99.90
52859;DHT22;38721;53.098;6.596;2024-03-02T13:21:05;14.20;99.90
52859;DHT22;38721;53.098;6.596;2024-03-02T13:23:31;14.00;99.90
52859;DHT22;38721;53.098;6.596;2024-03-02T13:25:58;14.00;99.90
52859;DHT22;38721;53.098;6.596;2024-03-02T13:28:27;14.10;99.90
52859;DHT22;38721;53.098;6.596;2024-03-02T13:30:53;14.40;99.90
52859;DHT22;38721;53.098;6.596;2024-03-02T13:33:19;14.70;99.90
52859;DHT22;38721;53.098;6.596;2024-03-02T13:35:51;14.70;99.90
52859;DHT22;38721;53.098;6.596;2024-03-02T13:38:20;14.80;99.90
52859;DHT22;38721;53.098;6.596;2024-03-02T13:40:49;14.60;99.90
52859;DHT22;38721;53.098;6.596;2024-03-02T13:43:18;14.90;99.90
52859;DHT22;38721;53.098;6.596;2024-03-02T13:45:44;14.90;99.90
52859;DHT22;38721;53.098;6.596;2024-03-02T13:48:10;14.70;99.90
52859;DHT22;38721;53.098;6.596;2024-03-02T13:50:36;14.50;99.90
52859;DHT22;38721;53.098;6.596;2024-03-02T13:53:02;14.40;99.90
52859;DHT22;38721;53.098;6.596;2024-03-02T13:55:28;14.30;99.90
52859;DHT22;38721;53.098;6.596;2024-03-02T13:57:54;14.30;99.90
52859;DHT22;38721;53.098;6.596;2024-03-02T14:00:20;14.50;99.90
52859;DHT22;38721;53.098;6.596;2024-03-02T14:02:46;14.50;99.90
52859;DHT22;38721;53.098;6.596;2024-03-02T14:05:15;14.60;99.90
52859;DHT22;38721;53.098;6.596;2024-03-02T14:07:41;14.70;99.90
52859;DHT22;38721;53.098;6.596;2024-03-02T14:10:07;14.60;99.90
52859;DHT22;38721;53.098;6.596;2024-03-02T14:12:33;14.50;99.90
52859;DHT22;38721;53.098;6.596;2024-03-02T14:14:59;14.60;99.90
52859;DHT22;38721;53.098;6.596;2024-03-02T14:17:27;14.60;99.90
52859;DHT22;38721;53.098;6.596;2024-03-02T14:19:53;14.60;99.90
52859;DHT22;38721;53.098;6.596;2024-03-02T14:22:19;14.50;99.90
52859;DHT22;38721;53.098;6.596;2024-03-02T14:24:45;14.80;99.90
52859;DHT22;38721;53.098;6.596;2024-03-02T14:27:11;14.70;99.90
52859;DHT22;38721;53.098;6.596;2024-03-02T14:29:37;14.90;99.90
52859;DHT22;38721;53.098;6.596;2024-03-02T14:32:05;15.30;99.90
52859;DHT22;38721;53.098;6.596;2024-03-02T14:34:31;15.70;99.90
52859;DHT22;38721;53.098;6.596;2024-03-02T14:36:56;16.50;99.90
52859;DHT22;38721;53.098;6.596;2024-03-02T14:39:22;16.80;99.90
52859;DHT22;38721;53.098;6.596;2024-03-02T14:41:48;16.50;99.90
52859;DHT22;38721;53.098;6.596;2024-03-02T14:44:14;17.00;99.90
52859;DHT22;38721;53.098;6.596;2024-03-02T14:46:40;16.10;99.90
52859;DHT22;38721;53.098;6.596;2024-03-02T14:49:08;15.50;99.90
52859;DHT22;38721;53.098;6.596;2024-03-02T14:51:34;15.40;99.90
52859;DHT22;38721;53.098;6.596;2024-03-02T14:53:59;15.30;99.90
52859;DHT22;38721;53.098;6.596;2024-03-02T14:56:25;15.40;99.90
52859;DHT22;38721;53.098;6.596;2024-03-02T14:58:51;15.30;99.90
52859;DHT22;38721;53.098;6.596;2024-03-02T15:01:16;15.20;99.90
52859;DHT22;38721;53.098;6.596;2024-03-02T15:03:43;15.90;99.90
52859;DHT22;38721;53.098;6.596;2024-03-02T15:06:09;15.80;99.90
52859;DHT22;38721;53.098;6.596;2024-03-02T15:08:35;15.50;99.90
52859;DHT22;38721;53.098;6.596;2024-03-02T15:11:01;15.70;99.90
52859;DHT22;38721;53.098;6.596;2024-03-02T15:13:29;15.20;99.90
52859;DHT22;38721;53.098;6.596;2024-03-02T15:15:55;14.80;99.90
52859;DHT22;38721;53.098;6.596;2024-03-02T15:18:21;14.60;99.90
52859;DHT22;38721;53.098;6.596;2024-03-02T15:20:50;14.50;99.90
52859;DHT22;38721;53.098;6.596;2024-03-02T15:23:15;14.10;99.90
52859;DHT22;38721;53.098;6.596;2024-03-02T15:25:41;14.30;99.90
52859;DHT22;38721;53.098;6.596;2024-03-02T15:28:07;14.20;99.90
52859;DHT22;38721;53.098;6.596;2024-03-02T15:30:33;14.10;99.90
52859;DHT22;38721;53.098;6.596;2024-03-02T15:32:59;14.70;99.90
52859;DHT22;38721;53.098;6.596;2024-03-02T15:35:24;14.40;99.90
52859;DHT22;38721;53.098;6.596;2024-03-02T15:37:51;14.60;99.90
52859;DHT22;38721;53.098;6.596;2024-03-02T15:40:17;14.20;99.90
52859;DHT22;38721;53.098;6.596;2024-03-02T15:42:45;13.80;99.90
52859;DHT22;38721;53.098;6.596;2024-03-02T15:45:12;13.70;99.90
52859;DHT22;38721;53.098;6.596;2024-03-02T15:47:37;13.40;99.90
52859;DHT22;38721;53.098;6.596;2024-03-02T15:50:03;13.30;99.90